sensor_id;sensor_type;location;lat;lon;timestamp;P1;durP1;ratioP1;P2;durP2;ratioP2
14074;SDS011;12831;52.392;13.066;2022-12-18T00:01:40;50.67;;;19.67;;
14074;SDS011;12831;52.392;13.066;2022-12-18T00:04:07;48.83;;;18.83;;
14074;SDS011;12831;52.392;13.066;2022-12-18T00:06:33;46.27;;;19.83;;
14074;SDS011;12831;52.392;13.066;2022-12-18T00:09:00;43.87;;;19.63;;
14074;SDS011;12831;52.392;13.066;2022-12-18T00:11:27;46.40;;;20.53;;
14074;SDS011;12831;52.392;13.066;2022-12-18T00:13:54;44.97;;;20.37;;
14074;SDS011;12831;52.392;13.066;2022-12-18T00:16:21;48.20;;;20.20;;
14074;SDS011;12831;52.392;13.066;2022-12-18T00:18:51;40.80;;;19.03;;
14074;SDS011;12831;52.392;13.066;2022-12-18T00:21:17;43.83;;;20.95;;
14074;SDS011;12831;52.392;13.066;2022-12-18T00:23:43;45.63;;;19.77;;
14074;SDS011;12831;52.392;13.066;2022-12-18T00:26:23;49.33;;;20.03;;
14074;SDS011;12831;52.392;13.066;2022-12-18T00:28:49;48.73;;;19.83;;
14074;SDS011;12831;52.392;13.066;2022-12-18T00:31:16;47.30;;;20.60;;
14074;SDS011;12831;52.392;13.066;2022-12-18T00:33:42;48.63;;;18.33;;
14074;SDS011;12831;52.392;13.066;2022-12-18T00:36:15;47.30;;;19.97;;
14074;SDS011;12831;52.392;13.066;2022-12-18T00:38:42;43.87;;;18.67;;
14074;SDS011;12831;52.392;13.066;2022-12-18T00:41:08;50.23;;;19.43;;
14074;SDS011;12831;52.392;13.066;2022-12-18T00:43:35;47.97;;;20.47;;
14074;SDS011;12831;52.392;13.066;2022-12-18T00:46:01;43.47;;;17.03;;
14074;SDS011;12831;52.392;13.066;2022-12-18T00:48:27;40.27;;;18.97;;
14074;SDS011;12831;52.392;13.066;2022-12-18T00:50:53;43.33;;;18.23;;
14074;SDS011;12831;52.392;13.066;2022-12-18T00:53:18;45.50;;;18.40;;
14074;SDS011;12831;52.392;13.066;2022-12-18T00:55:44;47.10;;;18.10;;
14074;SDS011;12831;52.392;13.066;2022-12-18T00:58:11;45.33;;;19.07;;
14074;SDS011;12831;52.392;13.066;2022-12-18T01:00:37;43.97;;;18.60;;
14074;SDS011;12831;52.392;13.066;2022-12-18T01:03:03;46.50;;;17.73;;
14074;SDS011;12831;52.392;13.066;2022-12-18T01:05:30;49.20;;;20.03;;
14074;SDS011;12831;52.392;13.066;2022-12-18T01:07:55;46.87;;;20.77;;
14074;SDS011;12831;52.392;13.066;2022-12-18T01:10:22;58.80;;;21.30;;
14074;SDS011;12831;52.392;13.066;2022-12-18T01:12:47;53.27;;;21.57;;
14074;SDS011;12831;52.392;13.066;2022-12-18T01:15:14;51.20;;;21.17;;
14074;SDS011;12831;52.392;13.066;2022-12-18T01:17:40;44.87;;;20.03;;
14074;SDS011;12831;52.392;13.066;2022-12-18T01:20:06;47.13;;;20.37;;
14074;SDS011;12831;52.392;13.066;2022-12-18T01:22:32;49.53;;;20.87;;
14074;SDS011;12831;52.392;13.066;2022-12-18T01:24:58;51.50;;;20.33;;
14074;SDS011;12831;52.392;13.066;2022-12-18T01:27:23;53.77;;;21.73;;
14074;SDS011;12831;52.392;13.066;2022-12-18T01:29:49;45.33;;;18.90;;
14074;SDS011;12831;52.392;13.066;2022-12-18T01:32:15;47.23;;;19.67;;
14074;SDS011;12831;52.392;13.066;2022-12-18T01:34:41;48.87;;;21.37;;
14074;SDS011;12831;52.392;13.066;2022-12-18T01:37:07;51.83;;;20.93;;
14074;SDS011;12831;52.392;13.066;2022-12-18T01:39:32;52.80;;;20.30;;
14074;SDS011;12831;52.392;13.066;2022-12-18T01:41:59;50.23;;;20.33;;
14074;SDS011;12831;52.392;13.066;2022-12-18T01:47:15;41.90;;;18.87;;
14074;SDS011;12831;52.392;13.066;2022-12-18T01:49:43;43.67;;;18.77;;
14074;SDS011;12831;52.392;13.066;2022-12-18T01:52:09;43.77;;;18.60;;
14074;SDS011;12831;52.392;13.066;2022-12-18T01:54:35;44.10;;;20.07;;
14074;SDS011;12831;52.392;13.066;2022-12-18T01:57:00;46.47;;;20.40;;
14074;SDS011;12831;52.392;13.066;2022-12-18T01:59:26;47.93;;;21.43;;
14074;SDS011;12831;52.392;13.066;2022-12-18T02:01:53;53.30;;;20.77;;
14074;SDS011;12831;52.392;13.066;2022-12-18T02:06:50;48.93;;;21.77;;
14074;SDS011;12831;52.392;13.066;2022-12-18T02:09:40;44.83;;;20.20;;
14074;SDS011;12831;52.392;13.066;2022-12-18T02:12:11;51.57;;;21.67;;
14074;SDS011;12831;52.392;13.066;2022-12-18T02:14:41;44.83;;;17.90;;
14074;SDS011;12831;52.392;13.066;2022-12-18T02:17:19;43.75;;;18.48;;
14074;SDS011;12831;52.392;13.066;2022-12-18T02:27:29;47.83;;;20.27;;
14074;SDS011;12831;52.392;13.066;2022-12-18T02:29:55;49.37;;;19.23;;
14074;SDS011;12831;52.392;13.066;2022-12-18T02:32:25;44.93;;;18.53;;
14074;SDS011;12831;52.392;13.066;2022-12-18T02:34:52;43.83;;;18.17;;
14074;SDS011;12831;52.392;13.066;2022-12-18T02:37:19;43.90;;;19.47;;
14074;SDS011;12831;52.392;13.066;2022-12-18T02:39:46;53.10;;;23.33;;
14074;SDS011;12831;52.392;13.066;2022-12-18T02:42:12;47.90;;;19.83;;
14074;SDS011;12831;52.392;13.066;2022-12-18T02:44:42;53.27;;;20.67;;
14074;SDS011;12831;52.392;13.066;2022-12-18T02:47:10;44.63;;;18.97;;
14074;SDS011;12831;52.392;13.066;2022-12-18T02:55:09;47.37;;;19.67;;
14074;SDS011;12831;52.392;13.066;2022-12-18T02:57:42;48.77;;;18.60;;
14074;SDS011;12831;52.392;13.066;2022-12-18T03:05:19;48.93;;;22.07;;
14074;SDS011;12831;52.392;13.066;2022-12-18T03:07:51;50.00;;;21.33;;
14074;SDS011;12831;52.392;13.066;2022-12-18T03:10:19;48.40;;;20.50;;
14074;SDS011;12831;52.392;13.066;2022-12-18T03:12:53;54.30;;;23.07;;
14074;SDS011;12831;52.392;13.066;2022-12-18T03:15:24;52.27;;;20.47;;
14074;SDS011;12831;52.392;13.066;2022-12-18T03:18:02;39.67;;;19.20;;
14074;SDS011;12831;52.392;13.066;2022-12-18T03:20:30;52.70;;;20.17;;
14074;SDS011;12831;52.392;13.066;2022-12-18T03:22:59;46.17;;;19.13;;
14074;SDS011;12831;52.392;13.066;2022-12-18T03:25:28;44.75;;;20.95;;
14074;SDS011;12831;52.392;13.066;2022-12-18T03:27:55;52.60;;;22.43;;
14074;SDS011;12831;52.392;13.066;2022-12-18T03:30:23;43.73;;;19.90;;
14074;SDS011;12831;52.392;13.066;2022-12-18T03:35:20;51.90;;;21.77;;
14074;SDS011;12831;52.392;13.066;2022-12-18T03:37:46;57.13;;;21.00;;
14074;SDS011;12831;52.392;13.066;2022-12-18T03:40:12;48.77;;;22.03;;
14074;SDS011;12831;52.392;13.066;2022-12-18T03:45:15;50.03;;;19.83;;
14074;SDS011;12831;52.392;13.066;2022-12-18T03:51:13;44.87;;;18.60;;
14074;SDS011;12831;52.392;13.066;2022-12-18T03:53:21;46.17;;;19.37;;
14074;SDS011;12831;52.392;13.066;2022-12-18T03:55:49;46.67;;;18.40;;
14074;SDS011;12831;52.392;13.066;2022-12-18T03:58:17;42.73;;;19.73;;
14074;SDS011;12831;52.392;13.066;2022-12-18T04:00:43;44.10;;;19.30;;
14074;SDS011;12831;52.392;13.066;2022-12-18T04:03:09;45.90;;;18.80;;
14074;SDS011;12831;52.392;13.066;2022-12-18T04:05:36;44.57;;;17.80;;
14074;SDS011;12831;52.392;13.066;2022-12-18T04:08:02;46.83;;;20.10;;
14074;SDS011;12831;52.392;13.066;2022-12-18T04:10:28;41.30;;;18.27;;
14074;SDS011;12831;52.392;13.066;2022-12-18T04:12:58;36.97;;;17.10;;
14074;SDS011;12831;52.392;13.066;2022-12-18T04:15:24;44.60;;;17.47;;
14074;SDS011;12831;52.392;13.066;2022-12-18T04:17:50;41.73;;;19.30;;
14074;SDS011;12831;52.392;13.066;2022-12-18T04:20:16;41.80;;;17.33;;
14074;SDS011;12831;52.392;13.066;2022-12-18T04:22:42;39.43;;;17.80;;
14074;SDS011;12831;52.392;13.066;2022-12-18T04:25:08;44.00;;;16.60;;
14074;SDS011;12831;52.392;13.066;2022-12-18T04:27:36;41.97;;;18.97;;
14074;SDS011;12831;52.392;13.066;2022-12-18T04:30:02;46.10;;;19.17;;
14074;SDS011;12831;52.392;13.066;2022-12-18T04:32:28;43.13;;;19.27;;
14074;SDS011;12831;52.392;13.066;2022-12-18T04:34:54;37.30;;;16.37;;
14074;SDS011;12831;52.392;13.066;2022-12-18T04:37:20;41.23;;;18.77;;
14074;SDS011;12831;52.392;13.066;2022-12-18T04:39:46;38.60;;;17.20;;
14074;SDS011;12831;52.392;13.066;2022-12-18T04:42:12;34.47;;;16.53;;
14074;SDS011;12831;52.392;13.066;2022-12-18T04:44:37;40.30;;;18.50;;
14074;SDS011;12831;52.392;13.066;2022-12-18T04:47:03;43.07;;;18.13;;
14074;SDS011;12831;52.392;13.066;2022-12-18T04:49:29;42.97;;;18.53;;
14074;SDS011;12831;52.392;13.066;2022-12-18T04:51:55;44.20;;;19.07;;
14074;SDS011;12831;52.392;13.066;2022-12-18T04:54:21;43.07;;;19.97;;
14074;SDS011;12831;52.392;13.066;2022-12-18T04:56:47;40.83;;;18.43;;
14074;SDS011;12831;52.392;13.066;2022-12-18T04:59:12;43.17;;;18.07;;
14074;SDS011;12831;52.392;13.066;2022-12-18T05:01:38;42.10;;;17.67;;
14074;SDS011;12831;52.392;13.066;2022-12-18T05:04:04;40.40;;;19.60;;
14074;SDS011;12831;52.392;13.066;2022-12-18T05:06:30;42.83;;;18.43;;
14074;SDS011;12831;52.392;13.066;2022-12-18T05:08:56;40.70;;;17.80;;
14074;SDS011;12831;52.392;13.066;2022-12-18T05:11:22;36.67;;;17.30;;
14074;SDS011;12831;52.392;13.066;2022-12-18T05:13:48;36.93;;;16.70;;
14074;SDS011;12831;52.392;13.066;2022-12-18T05:16:14;39.83;;;18.20;;
14074;SDS011;12831;52.392;13.066;2022-12-18T05:18:40;40.90;;;17.60;;
14074;SDS011;12831;52.392;13.066;2022-12-18T05:21:07;43.00;;;18.13;;
14074;SDS011;12831;52.392;13.066;2022-12-18T05:23:34;42.07;;;18.40;;
14074;SDS011;12831;52.392;13.066;2022-12-18T05:26:01;37.90;;;18.87;;
14074;SDS011;12831;52.392;13.066;2022-12-18T05:28:28;40.40;;;18.43;;
14074;SDS011;12831;52.392;13.066;2022-12-18T05:30:56;40.10;;;17.53;;
14074;SDS011;12831;52.392;13.066;2022-12-18T05:33:23;44.63;;;20.67;;
14074;SDS011;12831;52.392;13.066;2022-12-18T05:35:55;45.17;;;17.77;;
14074;SDS011;12831;52.392;13.066;2022-12-18T05:38:22;43.13;;;19.03;;
14074;SDS011;12831;52.392;13.066;2022-12-18T05:40:48;39.87;;;15.97;;
14074;SDS011;12831;52.392;13.066;2022-12-18T05:43:15;38.23;;;18.93;;
14074;SDS011;12831;52.392;13.066;2022-12-18T05:45:46;44.90;;;20.33;;
14074;SDS011;12831;52.392;13.066;2022-12-18T05:48:12;41.47;;;19.80;;
14074;SDS011;12831;52.392;13.066;2022-12-18T05:50:39;43.90;;;18.63;;
14074;SDS011;12831;52.392;13.066;2022-12-18T05:53:05;40.90;;;17.97;;
14074;SDS011;12831;52.392;13.066;2022-12-18T05:55:34;37.27;;;18.50;;
14074;SDS011;12831;52.392;13.066;2022-12-18T05:58:00;42.73;;;18.67;;
14074;SDS011;12831;52.392;13.066;2022-12-18T06:00:27;41.93;;;19.07;;
14074;SDS011;12831;52.392;13.066;2022-12-18T06:02:53;39.67;;;16.77;;
14074;SDS011;12831;52.392;13.066;2022-12-18T06:05:19;46.90;;;19.67;;
14074;SDS011;12831;52.392;13.066;2022-12-18T06:07:45;41.70;;;17.87;;
14074;SDS011;12831;52.392;13.066;2022-12-18T06:10:11;40.13;;;17.57;;
14074;SDS011;12831;52.392;13.066;2022-12-18T06:12:37;43.00;;;17.63;;
14074;SDS011;12831;52.392;13.066;2022-12-18T06:15:04;39.50;;;17.73;;
14074;SDS011;12831;52.392;13.066;2022-12-18T06:17:30;43.27;;;19.97;;
14074;SDS011;12831;52.392;13.066;2022-12-18T06:19:56;41.07;;;19.57;;
14074;SDS011;12831;52.392;13.066;2022-12-18T06:22:22;48.23;;;19.60;;
14074;SDS011;12831;52.392;13.066;2022-12-18T06:24:47;45.37;;;18.60;;
14074;SDS011;12831;52.392;13.066;2022-12-18T06:27:13;40.47;;;18.30;;
14074;SDS011;12831;52.392;13.066;2022-12-18T06:29:39;43.80;;;19.23;;
14074;SDS011;12831;52.392;13.066;2022-12-18T06:32:05;38.53;;;20.23;;
14074;SDS011;12831;52.392;13.066;2022-12-18T06:34:31;38.97;;;17.23;;
14074;SDS011;12831;52.392;13.066;2022-12-18T06:36:57;40.83;;;18.93;;
14074;SDS011;12831;52.392;13.066;2022-12-18T06:39:23;47.13;;;19.80;;
14074;SDS011;12831;52.392;13.066;2022-12-18T06:41:49;38.10;;;16.57;;
14074;SDS011;12831;52.392;13.066;2022-12-18T06:44:15;39.90;;;18.63;;
14074;SDS011;12831;52.392;13.066;2022-12-18T06:46:41;35.93;;;19.63;;
14074;SDS011;12831;52.392;13.066;2022-12-18T06:49:07;40.63;;;19.30;;
14074;SDS011;12831;52.392;13.066;2022-12-18T06:51:34;43.27;;;17.93;;
14074;SDS011;12831;52.392;13.066;2022-12-18T06:54:00;44.90;;;20.70;;
14074;SDS011;12831;52.392;13.066;2022-12-18T06:56:26;38.33;;;18.07;;
14074;SDS011;12831;52.392;13.066;2022-12-18T06:58:52;44.47;;;19.30;;
14074;SDS011;12831;52.392;13.066;2022-12-18T07:01:18;38.73;;;18.53;;
14074;SDS011;12831;52.392;13.066;2022-12-18T07:03:44;42.33;;;20.03;;
14074;SDS011;12831;52.392;13.066;2022-12-18T07:06:12;39.80;;;18.63;;
14074;SDS011;12831;52.392;13.066;2022-12-18T07:08:38;43.20;;;19.90;;
14074;SDS011;12831;52.392;13.066;2022-12-18T07:11:04;41.40;;;18.67;;
14074;SDS011;12831;52.392;13.066;2022-12-18T07:13:30;40.87;;;19.80;;
14074;SDS011;12831;52.392;13.066;2022-12-18T07:16:02;41.27;;;17.67;;
14074;SDS011;12831;52.392;13.066;2022-12-18T07:18:28;39.30;;;17.63;;
14074;SDS011;12831;52.392;13.066;2022-12-18T07:20:54;36.10;;;18.73;;
14074;SDS011;12831;52.392;13.066;2022-12-18T07:23:20;40.53;;;18.00;;
14074;SDS011;12831;52.392;13.066;2022-12-18T07:25:46;37.27;;;18.43;;
14074;SDS011;12831;52.392;13.066;2022-12-18T07:28:11;46.87;;;21.27;;
14074;SDS011;12831;52.392;13.066;2022-12-18T07:30:42;40.30;;;19.33;;
14074;SDS011;12831;52.392;13.066;2022-12-18T07:33:08;44.20;;;20.17;;
14074;SDS011;12831;52.392;13.066;2022-12-18T07:35:34;41.33;;;19.33;;
14074;SDS011;12831;52.392;13.066;2022-12-18T07:38:02;39.40;;;19.77;;
14074;SDS011;12831;52.392;13.066;2022-12-18T07:40:28;45.00;;;19.20;;
14074;SDS011;12831;52.392;13.066;2022-12-18T07:42:54;44.40;;;21.47;;
14074;SDS011;12831;52.392;13.066;2022-12-18T07:45:20;48.37;;;20.90;;
14074;SDS011;12831;52.392;13.066;2022-12-18T07:47:45;45.73;;;20.53;;
14074;SDS011;12831;52.392;13.066;2022-12-18T07:50:11;44.03;;;21.17;;
14074;SDS011;12831;52.392;13.066;2022-12-18T07:52:38;45.57;;;21.83;;
14074;SDS011;12831;52.392;13.066;2022-12-18T07:55:04;48.17;;;19.70;;
14074;SDS011;12831;52.392;13.066;2022-12-18T07:57:30;41.67;;;19.67;;
14074;SDS011;12831;52.392;13.066;2022-12-18T08:00:16;39.20;;;19.90;;
14074;SDS011;12831;52.392;13.066;2022-12-18T08:02:42;48.63;;;20.40;;
14074;SDS011;12831;52.392;13.066;2022-12-18T08:05:08;43.97;;;19.57;;
14074;SDS011;12831;52.392;13.066;2022-12-18T08:07:34;42.00;;;19.60;;
14074;SDS011;12831;52.392;13.066;2022-12-18T08:10:00;37.27;;;17.73;;
14074;SDS011;12831;52.392;13.066;2022-12-18T08:12:29;40.70;;;19.93;;
14074;SDS011;12831;52.392;13.066;2022-12-18T08:15:00;39.50;;;18.73;;
14074;SDS011;12831;52.392;13.066;2022-12-18T08:17:35;44.17;;;21.30;;
14074;SDS011;12831;52.392;13.066;2022-12-18T08:20:04;41.97;;;20.13;;
14074;SDS011;12831;52.392;13.066;2022-12-18T08:22:45;42.45;;;18.38;;
14074;SDS011;12831;52.392;13.066;2022-12-18T08:28:03;43.17;;;18.80;;
14074;SDS011;12831;52.392;13.066;2022-12-18T08:30:43;39.35;;;18.30;;
14074;SDS011;12831;52.392;13.066;2022-12-18T08:33:11;39.33;;;18.67;;
14074;SDS011;12831;52.392;13.066;2022-12-18T08:35:41;41.72;;;19.35;;
14074;SDS011;12831;52.392;13.066;2022-12-18T08:38:12;42.70;;;19.58;;
14074;SDS011;12831;52.392;13.066;2022-12-18T08:41:04;37.10;;;18.20;;
14074;SDS011;12831;52.392;13.066;2022-12-18T08:43:31;37.97;;;18.67;;
14074;SDS011;12831;52.392;13.066;2022-12-18T08:46:19;40.20;;;17.77;;
14074;SDS011;12831;52.392;13.066;2022-12-18T08:48:53;37.70;;;16.97;;
14074;SDS011;12831;52.392;13.066;2022-12-18T08:51:29;38.60;;;19.57;;
14074;SDS011;12831;52.392;13.066;2022-12-18T08:54:20;37.70;;;16.03;;
14074;SDS011;12831;52.392;13.066;2022-12-18T08:56:53;39.43;;;19.03;;
14074;SDS011;12831;52.392;13.066;2022-12-18T08:59:19;31.17;;;16.03;;
14074;SDS011;12831;52.392;13.066;2022-12-18T09:01:47;33.03;;;17.03;;
14074;SDS011;12831;52.392;13.066;2022-12-18T09:04:14;31.43;;;15.40;;
14074;SDS011;12831;52.392;13.066;2022-12-18T09:06:56;31.50;;;15.47;;
14074;SDS011;12831;52.392;13.066;2022-12-18T09:09:26;35.67;;;16.42;;
14074;SDS011;12831;52.392;13.066;2022-12-18T09:12:07;35.10;;;17.47;;
14074;SDS011;12831;52.392;13.066;2022-12-18T09:14:36;33.50;;;18.10;;
14074;SDS011;12831;52.392;13.066;2022-12-18T09:17:04;33.23;;;17.63;;
14074;SDS011;12831;52.392;13.066;2022-12-18T09:19:36;33.70;;;16.77;;
14074;SDS011;12831;52.392;13.066;2022-12-18T09:22:18;32.33;;;16.05;;
14074;SDS011;12831;52.392;13.066;2022-12-18T09:27:40;36.37;;;17.50;;
14074;SDS011;12831;52.392;13.066;2022-12-18T09:33:01;34.58;;;18.13;;
14074;SDS011;12831;52.392;13.066;2022-12-18T09:35:35;31.83;;;15.70;;
14074;SDS011;12831;52.392;13.066;2022-12-18T09:38:21;37.37;;;18.00;;
14074;SDS011;12831;52.392;13.066;2022-12-18T09:40:53;34.57;;;17.87;;
14074;SDS011;12831;52.392;13.066;2022-12-18T09:43:44;36.40;;;18.63;;
14074;SDS011;12831;52.392;13.066;2022-12-18T09:46:17;35.67;;;16.30;;
14074;SDS011;12831;52.392;13.066;2022-12-18T09:48:47;35.87;;;16.80;;
14074;SDS011;12831;52.392;13.066;2022-12-18T09:54:23;36.27;;;17.43;;
14074;SDS011;12831;52.392;13.066;2022-12-18T09:57:15;37.33;;;16.17;;
14074;SDS011;12831;52.392;13.066;2022-12-18T09:59:44;34.17;;;16.57;;
14074;SDS011;12831;52.392;13.066;2022-12-18T10:02:26;37.90;;;17.13;;
14074;SDS011;12831;52.392;13.066;2022-12-18T10:10:43;38.97;;;17.57;;
14074;SDS011;12831;52.392;13.066;2022-12-18T10:13:19;37.43;;;17.83;;
14074;SDS011;12831;52.392;13.066;2022-12-18T10:27:32;41.97;;;20.93;;
14074;SDS011;12831;52.392;13.066;2022-12-18T10:32:30;38.97;;;18.90;;
14074;SDS011;12831;52.392;13.066;2022-12-18T10:35:25;41.90;;;20.93;;
14074;SDS011;12831;52.392;13.066;2022-12-18T10:40:58;41.70;;;20.20;;
14074;SDS011;12831;52.392;13.066;2022-12-18T10:43:39;44.50;;;20.10;;
14074;SDS011;12831;52.392;13.066;2022-12-18T10:46:19;42.30;;;20.70;;
14074;SDS011;12831;52.392;13.066;2022-12-18T10:49:00;42.47;;;19.60;;
14074;SDS011;12831;52.392;13.066;2022-12-18T10:51:28;36.50;;;18.37;;
14074;SDS011;12831;52.392;13.066;2022-12-18T11:00:03;27.73;;;14.83;;
14074;SDS011;12831;52.392;13.066;2022-12-18T11:02:52;27.33;;;14.30;;
14074;SDS011;12831;52.392;13.066;2022-12-18T11:05:29;31.23;;;13.32;;
14074;SDS011;12831;52.392;13.066;2022-12-18T11:08:01;27.03;;;14.23;;
14074;SDS011;12831;52.392;13.066;2022-12-18T11:10:44;30.60;;;15.20;;
14074;SDS011;12831;52.392;13.066;2022-12-18T11:13:36;30.10;;;14.87;;
14074;SDS011;12831;52.392;13.066;2022-12-18T11:16:07;29.00;;;14.40;;
14074;SDS011;12831;52.392;13.066;2022-12-18T11:19:09;34.15;;;16.60;;
14074;SDS011;12831;52.392;13.066;2022-12-18T11:29:49;29.23;;;15.80;;
14074;SDS011;12831;52.392;13.066;2022-12-18T11:34:41;30.37;;;16.43;;
14074;SDS011;12831;52.392;13.066;2022-12-18T11:37:25;29.00;;;16.03;;
14074;SDS011;12831;52.392;13.066;2022-12-18T13:21:34;27.03;;;14.80;;
14074;SDS011;12831;52.392;13.066;2022-12-18T13:24:25;27.13;;;14.97;;
14074;SDS011;12831;52.392;13.066;2022-12-18T13:30:39;25.27;;;12.05;;
14074;SDS011;12831;52.392;13.066;2022-12-18T13:33:46;25.87;;;13.17;;
14074;SDS011;12831;52.392;13.066;2022-12-18T13:36:40;21.53;;;12.03;;
14074;SDS011;12831;52.392;13.066;2022-12-18T17:07:34;34.27;;;18.00;;
14074;SDS011;12831;52.392;13.066;2022-12-18T17:10:19;31.77;;;16.73;;
14074;SDS011;12831;52.392;13.066;2022-12-18T22:58:22;39.50;;;17.33;;
14074;SDS011;12831;52.392;13.066;2022-12-18T23:00:48;43.93;;;18.67;;
14074;SDS011;12831;52.392;13.066;2022-12-18T23:03:13;40.47;;;16.70;;
14074;SDS011;12831;52.392;13.066;2022-12-18T23:05:39;37.23;;;16.67;;
14074;SDS011;12831;52.392;13.066;2022-12-18T23:08:05;38.53;;;18.80;;
14074;SDS011;12831;52.392;13.066;2022-12-18T23:10:31;37.47;;;17.73;;
14074;SDS011;12831;52.392;13.066;2022-12-18T23:12:56;36.53;;;16.57;;
14074;SDS011;12831;52.392;13.066;2022-12-18T23:15:22;37.90;;;16.90;;
14074;SDS011;12831;52.392;13.066;2022-12-18T23:17:53;37.27;;;16.90;;
14074;SDS011;12831;52.392;13.066;2022-12-18T23:20:19;38.47;;;17.60;;
14074;SDS011;12831;52.392;13.066;2022-12-18T23:22:45;35.33;;;16.20;;
14074;SDS011;12831;52.392;13.066;2022-12-18T23:25:10;33.40;;;16.87;;
14074;SDS011;12831;52.392;13.066;2022-12-18T23:27:36;37.73;;;17.57;;
14074;SDS011;12831;52.392;13.066;2022-12-18T23:30:02;35.13;;;17.27;;
14074;SDS011;12831;52.392;13.066;2022-12-18T23:32:28;37.47;;;17.67;;
14074;SDS011;12831;52.392;13.066;2022-12-18T23:34:54;35.53;;;17.63;;
14074;SDS011;12831;52.392;13.066;2022-12-18T23:37:19;38.37;;;16.90;;
14074;SDS011;12831;52.392;13.066;2022-12-18T23:40:05;37.17;;;15.90;;
14074;SDS011;12831;52.392;13.066;2022-12-18T23:42:31;35.77;;;16.50;;
14074;SDS011;12831;52.392;13.066;2022-12-18T23:44:57;36.37;;;16.87;;
14074;SDS011;12831;52.392;13.066;2022-12-18T23:47:24;41.20;;;16.33;;
14074;SDS011;12831;52.392;13.066;2022-12-18T23:49:50;33.50;;;15.57;;
14074;SDS011;12831;52.392;13.066;2022-12-18T23:52:16;38.23;;;17.33;;
14074;SDS011;12831;52.392;13.066;2022-12-18T23:54:42;33.27;;;15.13;;
14074;SDS011;12831;52.392;13.066;2022-12-18T23:57:07;36.00;;;16.47;;
14074;SDS011;12831;52.392;13.066;2022-12-18T23:59:33;36.30;;;16.53;;
